Time;durP1;ratioP1;P1;durP2;ratioP2;P2;SDS_P1;SDS_P2;PMS_P1;PMS_P2;Temp;Humidity;BMP_temperature;BMP_pressure;BME280_temperature;BME280_humidity;BME280_pressure;Samples;Min_cycle;Max_cycle;Signal;HPM_P1;HPM_P2
2023/03/19 00:00:23;;;;;;;;;;;10.10;99.90;;;;;;5093402;28;19908;-57
2023/03/19 00:02:50;;;;;;;;;;;10.10;99.90;;;;;;5093559;28;20306;-57
2023/03/19 00:05:16;;;;;;;;;;;10.10;99.90;;;;;;5092786;28;19909;-57
2023/03/19 00:07:42;;;;;;;;;;;10.10;99.90;;;;;;5093441;28;19908;-57
2023/03/19 00:10:08;;;;;;;;;;;10.10;99.90;;;;;;5093498;28;19931;-57
2023/03/19 00:12:33;;;;;;;;;;;10.10;99.90;;;;;;5092734;28;19943;-57
2023/03/19 00:14:59;;;;;;;;;;;10.10;99.90;;;;;;5093341;28;19963;-57
2023/03/19 00:17:24;;;;;;;;;;;10.10;99.90;;;;;;5093483;28;19954;-57
2023/03/19 00:19:50;;;;;;;;;;;10.10;99.90;;;;;;5087048;28;19923;-57
2023/03/19 00:22:15;;;;;;;;;;;10.10;99.90;;;;;;5093247;28;20363;-57
2023/03/19 00:24:41;;;;;;;;;;;10.20;99.90;;;;;;5086257;28;19919;-57
2023/03/19 00:27:06;;;;;;;;;;;10.20;99.90;;;;;;5072165;28;19908;-57
2023/03/19 00:29:32;;;;;;;;;;;10.20;99.90;;;;;;5072954;28;19962;-57
2023/03/19 00:31:57;;;;;;;;;;;10.20;99.90;;;;;;5073016;28;19915;-56
2023/03/19 00:34:23;;;;;;;;;;;10.20;99.90;;;;;;5071982;28;19959;-57
2023/03/19 00:36:48;;;;;;;;;;;10.30;99.90;;;;;;5072839;28;19908;-57
2023/03/19 00:39:14;;;;;;;;;;;10.30;99.90;;;;;;5072315;28;20003;-57
2023/03/19 00:41:39;;;;;;;;;;;10.30;99.90;;;;;;5071828;28;20003;-57
2023/03/19 00:44:05;;;;;;;;;;;10.30;99.90;;;;;;5072652;28;19916;-57
2023/03/19 00:46:31;;;;;;;;;;;10.30;99.90;;;;;;5072558;28;20377;-57
2023/03/19 00:48:57;;;;;;;;;;;10.40;99.90;;;;;;5071874;28;20316;-57
2023/03/19 00:51:23;;;;;;;;;;;10.40;99.90;;;;;;5072556;28;20000;-57
2023/03/19 00:53:48;;;;;;;;;;;10.40;99.90;;;;;;5072748;28;19952;-57
2023/03/19 00:56:15;;;;;;;;;;;10.50;99.90;;;;;;5071878;28;19920;-57
2023/03/19 00:58:40;;;;;;;;;;;10.50;99.90;;;;;;5072400;28;19924;-57
2023/03/19 01:01:10;;;;;;;;;;;10.50;99.90;;;;;;5071936;28;20276;-57
2023/03/19 01:03:37;;;;;;;;;;;10.50;99.90;;;;;;5071696;28;20162;-57
2023/03/19 01:06:03;;;;;;;;;;;10.50;99.90;;;;;;5072538;28;19948;-57
2023/03/19 01:08:29;;;;;;;;;;;10.60;99.90;;;;;;5071548;28;20035;-56
2023/03/19 01:10:54;;;;;;;;;;;10.60;99.90;;;;;;5072438;28;19995;-57
2023/03/19 01:13:20;;;;;;;;;;;10.60;99.90;;;;;;5072631;28;19909;-57
2023/03/19 01:15:45;;;;;;;;;;;10.60;99.90;;;;;;5071601;28;19909;-57
2023/03/19 01:18:11;;;;;;;;;;;10.60;99.90;;;;;;5072397;28;20283;-57
2023/03/19 01:20:38;;;;;;;;;;;10.60;99.90;;;;;;5078806;28;19956;-57
2023/03/19 01:23:04;;;;;;;;;;;10.60;99.90;;;;;;5085212;28;19975;-57
2023/03/19 01:25:29;;;;;;;;;;;10.60;99.90;;;;;;5079373;28;20363;-57
2023/03/19 01:27:55;;;;;;;;;;;10.60;99.90;;;;;;5092732;28;19960;-57
2023/03/19 01:30:20;;;;;;;;;;;10.60;99.90;;;;;;5086094;28;19916;-57
2023/03/19 01:32:46;;;;;;;;;;;10.60;99.90;;;;;;5072103;28;19916;-57
2023/03/19 01:35:11;;;;;;;;;;;10.60;99.90;;;;;;5072295;28;19915;-57
2023/03/19 01:37:37;;;;;;;;;;;10.60;99.90;;;;;;5071546;28;19912;-57
2023/03/19 01:40:03;;;;;;;;;;;10.60;99.90;;;;;;5082289;28;19916;-57
2023/03/19 01:42:28;;;;;;;;;;;10.60;99.90;;;;;;5092586;28;19908;-57
2023/03/19 01:44:54;;;;;;;;;;;10.60;99.90;;;;;;5090586;28;19915;-57
2023/03/19 01:47:33;;;;;;;;;;;10.60;99.90;;;;;;5092313;28;20323;-57
2023/03/19 01:49:59;;;;;;;;;;;10.60;99.90;;;;;;5093189;28;19915;-57
2023/03/19 01:52:28;;;;;;;;;;;10.60;99.90;;;;;;5089971;28;20003;-57
2023/03/19 01:54:55;;;;;;;;;;;10.60;99.90;;;;;;5095982;28;20389;-57
2023/03/19 01:57:21;;;;;;;;;;;10.60;99.90;;;;;;5096015;28;19915;-57
2023/03/19 01:59:50;;;;;;;;;;;10.50;99.90;;;;;;5095590;28;19916;-57
2023/03/19 02:02:19;;;;;;;;;;;10.50;99.90;;;;;;5095879;28;19959;-57
2023/03/19 02:04:46;;;;;;;;;;;10.50;99.90;;;;;;5095123;28;19977;-57
2023/03/19 02:07:12;;;;;;;;;;;10.50;99.90;;;;;;5095937;28;19999;-57
2023/03/19 02:09:39;;;;;;;;;;;10.50;99.90;;;;;;5095776;28;19908;-57
2023/03/19 02:12:06;;;;;;;;;;;10.50;99.90;;;;;;5095209;28;20223;-57
2023/03/19 02:14:31;;;;;;;;;;;10.50;99.90;;;;;;5085514;28;19955;-58
2023/03/19 02:16:57;;;;;;;;;;;10.50;99.90;;;;;;5075473;28;20364;-57
2023/03/19 02:19:27;;;;;;;;;;;10.50;99.90;;;;;;5074455;28;20429;-57
2023/03/19 02:21:54;;;;;;;;;;;10.50;99.90;;;;;;5075466;28;19913;-57
2023/03/19 02:24:26;;;;;;;;;;;10.40;99.90;;;;;;5076329;28;19995;-57
2023/03/19 02:26:52;;;;;;;;;;;10.40;99.90;;;;;;5074243;28;20402;-58
2023/03/19 02:29:17;;;;;;;;;;;10.40;99.90;;;;;;5075101;28;19908;-57
2023/03/19 02:31:42;;;;;;;;;;;10.40;99.90;;;;;;5075069;28;19958;-57
2023/03/19 02:34:08;;;;;;;;;;;10.40;99.90;;;;;;5074589;28;19909;-57
2023/03/19 02:36:45;;;;;;;;;;;10.30;99.90;;;;;;5074900;28;20298;-57
2023/03/19 02:39:18;;;;;;;;;;;10.30;99.90;;;;;;5074980;28;20030;-56
2023/03/19 02:41:44;;;;;;;;;;;10.30;99.90;;;;;;5074191;28;19918;-57
2023/03/19 02:44:11;;;;;;;;;;;10.30;99.90;;;;;;5074654;28;20007;-57
2023/03/19 02:46:36;;;;;;;;;;;10.30;99.90;;;;;;5074314;28;19919;-58
2023/03/19 02:49:02;;;;;;;;;;;10.30;99.90;;;;;;5074476;28;19909;-57
2023/03/19 02:51:28;;;;;;;;;;;10.40;99.90;;;;;;5074900;28;19947;-57
2023/03/19 02:53:54;;;;;;;;;;;10.30;99.90;;;;;;5073996;28;19940;-57
2023/03/19 02:56:19;;;;;;;;;;;10.30;99.90;;;;;;5074726;28;19912;-57
2023/03/19 02:58:45;;;;;;;;;;;10.40;99.90;;;;;;5074530;28;20379;-57
2023/03/19 03:01:10;;;;;;;;;;;10.30;99.90;;;;;;5073512;28;19927;-57
2023/03/19 03:03:36;;;;;;;;;;;10.30;99.90;;;;;;5074472;28;20279;-57
2023/03/19 03:06:01;;;;;;;;;;;10.30;99.90;;;;;;5074654;28;19912;-57
2023/03/19 03:08:27;;;;;;;;;;;10.30;99.90;;;;;;5073405;28;20283;-57
2023/03/19 03:10:52;;;;;;;;;;;10.30;99.90;;;;;;5074423;28;20360;-57
2023/03/19 03:13:18;;;;;;;;;;;10.30;99.90;;;;;;5074366;28;19934;-58
2023/03/19 03:15:43;;;;;;;;;;;10.30;99.90;;;;;;5091480;28;19966;-57
2023/03/19 03:18:09;;;;;;;;;;;10.30;99.90;;;;;;5094552;28;19927;-57
2023/03/19 03:20:35;;;;;;;;;;;10.20;99.90;;;;;;5094396;28;20405;-57
2023/03/19 03:23:00;;;;;;;;;;;10.20;99.90;;;;;;5093605;28;20002;-57
2023/03/19 03:25:26;;;;;;;;;;;10.20;99.90;;;;;;5094303;28;19908;-57
2023/03/19 03:27:52;;;;;;;;;;;10.20;99.90;;;;;;5094305;28;19959;-57
2023/03/19 03:30:17;;;;;;;;;;;10.20;99.90;;;;;;5093525;28;20362;-57
2023/03/19 03:32:43;;;;;;;;;;;10.20;99.90;;;;;;5093869;28;19916;-57
2023/03/19 03:35:08;;;;;;;;;;;10.30;99.90;;;;;;5094272;28;19943;-57
2023/03/19 03:37:35;;;;;;;;;;;10.30;99.90;;;;;;5093379;28;19912;-57
2023/03/19 03:40:05;;;;;;;;;;;10.30;99.90;;;;;;5094116;28;19916;-57
2023/03/19 03:42:31;;;;;;;;;;;10.30;99.90;;;;;;5093875;28;19908;-57
2023/03/19 03:44:57;;;;;;;;;;;10.30;99.90;;;;;;5083239;28;19916;-57
2023/03/19 03:47:22;;;;;;;;;;;10.30;99.90;;;;;;5072599;28;19967;-58
2023/03/19 03:49:48;;;;;;;;;;;10.20;99.90;;;;;;5072559;28;19916;-58
2023/03/19 03:52:13;;;;;;;;;;;10.20;99.90;;;;;;5066666;28;20070;-57
2023/03/19 03:54:39;;;;;;;;;;;10.20;99.90;;;;;;5075933;28;20393;-58
2023/03/19 03:57:05;;;;;;;;;;;10.20;99.90;;;;;;5092828;28;19912;-57
2023/03/19 03:59:30;;;;;;;;;;;10.20;99.90;;;;;;5093860;28;19917;-57
2023/03/19 04:01:56;;;;;;;;;;;10.20;99.90;;;;;;5093485;28;19952;-57
2023/03/19 04:04:21;;;;;;;;;;;10.20;99.90;;;;;;5088803;28;20382;-57
2023/03/19 04:06:46;;;;;;;;;;;10.20;99.90;;;;;;5072984;28;19923;-57
2023/03/19 04:09:12;;;;;;;;;;;10.30;99.90;;;;;;5073406;28;19962;-58
2023/03/19 04:11:40;;;;;;;;;;;10.30;99.90;;;;;;5072364;28;19908;-58
2023/03/19 04:14:06;;;;;;;;;;;10.30;99.90;;;;;;5072959;28;19912;-57
2023/03/19 04:16:32;;;;;;;;;;;10.40;99.90;;;;;;5073119;28;19909;-58
2023/03/19 04:18:58;;;;;;;;;;;10.40;99.90;;;;;;5072238;28;19917;-57
2023/03/19 04:21:24;;;;;;;;;;;10.40;99.90;;;;;;5072721;28;19909;-57
2023/03/19 04:23:50;;;;;;;;;;;10.40;99.90;;;;;;5073073;28;19909;-58
2023/03/19 04:26:16;;;;;;;;;;;10.40;99.90;;;;;;5082894;28;19981;-58
2023/03/19 04:28:41;;;;;;;;;;;10.50;99.90;;;;;;5093094;28;20431;-57
2023/03/19 04:31:08;;;;;;;;;;;10.50;99.90;;;;;;5093431;28;19915;-58
2023/03/19 04:33:33;;;;;;;;;;;10.50;99.90;;;;;;5091959;28;20034;-57
2023/03/19 04:35:59;;;;;;;;;;;10.40;99.90;;;;;;5092364;28;20332;-57
2023/03/19 04:38:28;;;;;;;;;;;10.50;99.90;;;;;;5092027;28;20296;-58
2023/03/19 04:40:54;;;;;;;;;;;10.50;99.90;;;;;;5083309;28;19911;-58
2023/03/19 04:43:20;;;;;;;;;;;10.50;99.90;;;;;;5092849;28;19908;-57
2023/03/19 04:45:46;;;;;;;;;;;10.50;99.90;;;;;;5092652;28;19912;-57
2023/03/19 04:48:11;;;;;;;;;;;10.50;99.90;;;;;;5092098;28;20428;-57
2023/03/19 04:50:38;;;;;;;;;;;10.50;99.90;;;;;;5092831;28;19908;-57
2023/03/19 04:53:03;;;;;;;;;;;10.50;99.90;;;;;;5092478;28;19915;-58
2023/03/19 04:55:29;;;;;;;;;;;10.50;99.90;;;;;;5091890;28;19908;-58
2023/03/19 04:57:54;;;;;;;;;;;10.40;99.90;;;;;;5092663;28;19966;-58
2023/03/19 05:00:20;;;;;;;;;;;10.40;99.90;;;;;;5091803;28;19920;-56
2023/03/19 05:02:46;;;;;;;;;;;10.30;99.90;;;;;;5092692;28;20005;-57
2023/03/19 05:05:12;;;;;;;;;;;10.30;99.90;;;;;;5092842;28;20396;-58
2023/03/19 05:07:38;;;;;;;;;;;10.20;99.90;;;;;;5091724;28;19919;-58
2023/03/19 05:10:04;;;;;;;;;;;10.10;99.90;;;;;;5092604;28;19912;-57
2023/03/19 05:12:29;;;;;;;;;;;10.10;99.90;;;;;;5092573;28;20401;-58
2023/03/19 05:14:55;;;;;;;;;;;10.00;99.90;;;;;;5089984;28;19951;-57
2023/03/19 05:17:20;;;;;;;;;;;10.00;99.90;;;;;;5072635;28;20074;-57
2023/03/19 05:19:46;;;;;;;;;;;9.90;99.90;;;;;;5072464;28;19917;-58
2023/03/19 05:22:11;;;;;;;;;;;9.90;99.90;;;;;;5071341;28;19915;-57
2023/03/19 05:24:37;;;;;;;;;;;9.80;99.90;;;;;;5072801;28;20267;-58
2023/03/19 05:27:02;;;;;;;;;;;9.80;99.90;;;;;;5076416;28;19913;-57
2023/03/19 05:29:28;;;;;;;;;;;9.80;99.90;;;;;;5075518;28;20305;-58
2023/03/19 05:31:53;;;;;;;;;;;9.70;99.90;;;;;;5076612;28;19955;-58
2023/03/19 05:34:19;;;;;;;;;;;9.70;99.90;;;;;;5076640;28;19913;-58
2023/03/19 05:36:45;;;;;;;;;;;9.60;99.90;;;;;;5075325;28;19920;-58
2023/03/19 05:39:10;;;;;;;;;;;9.60;99.90;;;;;;5075988;28;19916;-58
2023/03/19 05:41:36;;;;;;;;;;;9.50;99.90;;;;;;5076611;28;20272;-58
2023/03/19 05:44:02;;;;;;;;;;;9.40;99.90;;;;;;5093888;28;20009;-57
2023/03/19 05:46:27;;;;;;;;;;;9.40;99.90;;;;;;5092572;28;20295;-58
2023/03/19 05:48:53;;;;;;;;;;;9.30;99.90;;;;;;5087699;28;19908;-58
2023/03/19 05:51:18;;;;;;;;;;;9.20;99.90;;;;;;5075224;28;20020;-57
2023/03/19 05:53:44;;;;;;;;;;;9.20;99.90;;;;;;5094879;28;19916;-58
2023/03/19 05:56:10;;;;;;;;;;;9.20;99.90;;;;;;5096223;28;19961;-57
2023/03/19 05:58:36;;;;;;;;;;;9.10;99.90;;;;;;5094163;28;19912;-58
2023/03/19 06:01:01;;;;;;;;;;;9.10;99.90;;;;;;5075491;28;20011;-58
2023/03/19 06:03:27;;;;;;;;;;;9.10;99.90;;;;;;5075599;28;20298;-58
2023/03/19 06:05:52;;;;;;;;;;;9.10;99.90;;;;;;5075094;28;19909;-57
2023/03/19 06:08:18;;;;;;;;;;;9.00;99.90;;;;;;5075527;28;19969;-57
2023/03/19 06:10:44;;;;;;;;;;;9.00;99.90;;;;;;5074800;28;19987;-58
2023/03/19 06:13:10;;;;;;;;;;;9.00;99.90;;;;;;5075546;28;20367;-57
2023/03/19 06:15:35;;;;;;;;;;;8.90;99.90;;;;;;5081983;28;19912;-58
2023/03/19 06:18:01;;;;;;;;;;;8.90;99.90;;;;;;5077912;28;19912;-58
2023/03/19 06:20:26;;;;;;;;;;;8.90;99.90;;;;;;5075386;28;19963;-58
2023/03/19 06:22:52;;;;;;;;;;;8.90;99.90;;;;;;5075204;28;19912;-58
2023/03/19 06:25:17;;;;;;;;;;;8.90;99.90;;;;;;5074909;28;19915;-58
2023/03/19 06:27:43;;;;;;;;;;;8.90;99.90;;;;;;5075232;28;19916;-57
2023/03/19 06:30:08;;;;;;;;;;;8.90;99.90;;;;;;5075286;28;19908;-56
2023/03/19 06:32:34;;;;;;;;;;;9.00;99.90;;;;;;5074269;28;19909;-60
2023/03/19 06:35:00;;;;;;;;;;;9.00;99.90;;;;;;5075082;28;20390;-61
2023/03/19 06:37:26;;;;;;;;;;;9.00;99.90;;;;;;5074123;28;19943;-59
2023/03/19 06:39:53;;;;;;;;;;;9.00;99.90;;;;;;5074153;28;19970;-61
2023/03/19 06:42:21;;;;;;;;;;;9.00;99.90;;;;;;5075004;28;19999;-60
2023/03/19 06:44:47;;;;;;;;;;;9.00;99.90;;;;;;5074760;28;20000;-60
2023/03/19 06:47:13;;;;;;;;;;;9.10;99.90;;;;;;5074164;28;20007;-61
2023/03/19 06:49:38;;;;;;;;;;;9.10;99.90;;;;;;5074953;28;19909;-59
2023/03/19 06:52:04;;;;;;;;;;;9.10;99.90;;;;;;5091149;28;20007;-59
2023/03/19 06:54:30;;;;;;;;;;;9.10;99.90;;;;;;5094167;28;20359;-60
2023/03/19 06:56:56;;;;;;;;;;;9.10;99.90;;;;;;5094984;28;19908;-60
2023/03/19 06:59:21;;;;;;;;;;;9.20;99.90;;;;;;5094874;28;19916;-60
2023/03/19 07:01:47;;;;;;;;;;;9.10;99.90;;;;;;5093735;28;19999;-60
2023/03/19 07:04:12;;;;;;;;;;;9.10;99.90;;;;;;5094705;28;19961;-59
2023/03/19 07:06:38;;;;;;;;;;;9.10;99.90;;;;;;5094393;28;20287;-60
2023/03/19 07:09:03;;;;;;;;;;;9.10;99.90;;;;;;5093977;28;20282;-60
2023/03/19 07:11:29;;;;;;;;;;;9.00;99.90;;;;;;5094431;28;19915;-59
2023/03/19 07:13:55;;;;;;;;;;;9.00;99.90;;;;;;5093773;28;19923;-60
2023/03/19 07:16:20;;;;;;;;;;;8.90;99.90;;;;;;5081567;28;19912;-59
2023/03/19 07:18:46;;;;;;;;;;;8.90;99.90;;;;;;5074159;28;20402;-60
2023/03/19 07:21:11;;;;;;;;;;;8.90;99.90;;;;;;5073540;28;19913;-60
2023/03/19 07:23:37;;;;;;;;;;;8.90;99.90;;;;;;5073977;28;20426;-60
2023/03/19 07:26:02;;;;;;;;;;;8.90;99.90;;;;;;5074169;28;19909;-60
2023/03/19 07:28:28;;;;;;;;;;;9.00;99.90;;;;;;5073290;28;19995;-60
2023/03/19 07:30:53;;;;;;;;;;;9.00;99.90;;;;;;5074021;28;19913;-60
2023/03/19 07:33:20;;;;;;;;;;;9.10;99.90;;;;;;5073988;28;20413;-59
2023/03/19 07:35:45;;;;;;;;;;;9.20;99.90;;;;;;5073063;28;20019;-60
2023/03/19 07:38:11;;;;;;;;;;;9.30;99.90;;;;;;5073537;28;20003;-60
2023/03/19 07:40:36;;;;;;;;;;;9.50;99.90;;;;;;5073877;28;19913;-60
2023/03/19 07:43:02;;;;;;;;;;;9.50;99.90;;;;;;5073093;28;19909;-60
2023/03/19 07:45:28;;;;;;;;;;;9.60;99.90;;;;;;5075060;28;20003;-59
2023/03/19 07:47:53;;;;;;;;;;;9.70;99.90;;;;;;5085381;28;19934;-60
2023/03/19 07:50:19;;;;;;;;;;;9.70;99.90;;;;;;5110434;28;20381;-59
2023/03/19 07:52:46;;;;;;;;;;;9.90;99.90;;;;;;5076170;28;19916;-60
2023/03/19 07:55:11;;;;;;;;;;;10.10;99.90;;;;;;5070316;28;19932;-59
2023/03/19 07:57:37;;;;;;;;;;;10.30;99.90;;;;;;5077520;28;19912;-59
2023/03/19 08:00:03;;;;;;;;;;;10.40;99.90;;;;;;5088758;28;19926;-59
2023/03/19 08:02:28;;;;;;;;;;;10.60;99.90;;;;;;5093293;28;19927;-60
2023/03/19 08:04:54;;;;;;;;;;;10.70;99.90;;;;;;5083363;28;19912;-59
2023/03/19 08:07:20;;;;;;;;;;;10.80;99.90;;;;;;5073231;28;19931;-60
2023/03/19 08:09:45;;;;;;;;;;;10.90;99.90;;;;;;5073357;28;19962;-59
2023/03/19 08:12:12;;;;;;;;;;;11.00;99.90;;;;;;5072487;28;20260;-60
2023/03/19 08:14:37;;;;;;;;;;;11.10;99.90;;;;;;5073200;28;20307;-60
2023/03/19 08:17:03;;;;;;;;;;;11.20;99.90;;;;;;5080400;28;20445;-60
2023/03/19 08:19:28;;;;;;;;;;;11.20;99.90;;;;;;5072316;28;19923;-60
2023/03/19 08:21:54;;;;;;;;;;;11.20;99.90;;;;;;5073197;28;19915;-59
2023/03/19 08:24:19;;;;;;;;;;;11.10;99.90;;;;;;5070919;28;20435;-59
2023/03/19 08:26:45;;;;;;;;;;;11.10;99.90;;;;;;5084845;28;19923;-59
2023/03/19 08:29:11;;;;;;;;;;;11.10;99.90;;;;;;5081719;28;20375;-59
2023/03/19 08:31:37;;;;;;;;;;;11.10;99.90;;;;;;5102467;28;19919;-58
2023/03/19 08:34:03;;;;;;;;;;;11.20;99.90;;;;;;5101739;28;20049;-60
2023/03/19 08:36:29;;;;;;;;;;;11.20;99.90;;;;;;5077890;28;19916;-59
2023/03/19 08:38:55;;;;;;;;;;;11.30;99.90;;;;;;5096461;28;19920;-60
2023/03/19 08:41:21;;;;;;;;;;;11.40;99.90;;;;;;5098823;28;19908;-60
2023/03/19 08:43:46;;;;;;;;;;;11.50;99.90;;;;;;5101066;28;20394;-60
2023/03/19 08:46:12;;;;;;;;;;;11.60;99.90;;;;;;5099530;28;20698;-59
2023/03/19 08:48:38;;;;;;;;;;;11.80;99.90;;;;;;5095410;28;20348;-58
2023/03/19 08:51:04;;;;;;;;;;;11.70;99.90;;;;;;5094215;28;20347;-59
2023/03/19 08:53:29;;;;;;;;;;;11.70;99.90;;;;;;5099735;28;19908;-60
2023/03/19 08:55:56;;;;;;;;;;;11.70;99.90;;;;;;5097808;28;20006;-59
2023/03/19 08:58:21;;;;;;;;;;;11.60;99.90;;;;;;5101196;28;19914;-60
2023/03/19 09:00:48;;;;;;;;;;;11.60;99.90;;;;;;5099466;28;20014;-60
2023/03/19 09:03:14;;;;;;;;;;;11.60;99.90;;;;;;5102589;28;20089;-59
2023/03/19 09:05:39;;;;;;;;;;;11.70;99.90;;;;;;5100157;28;20410;-59
2023/03/19 09:08:05;;;;;;;;;;;11.80;99.90;;;;;;5101173;28;20016;-60
2023/03/19 09:10:31;;;;;;;;;;;11.90;99.90;;;;;;5102728;28;19923;-60
2023/03/19 09:12:57;;;;;;;;;;;11.90;99.90;;;;;;5100533;28;19912;-59
2023/03/19 09:15:22;;;;;;;;;;;11.90;99.90;;;;;;5100700;28;19955;-60
2023/03/19 09:17:48;;;;;;;;;;;11.80;99.90;;;;;;5093255;28;20377;-60
2023/03/19 09:20:14;;;;;;;;;;;11.70;99.90;;;;;;5091223;28;19939;-59
2023/03/19 09:22:39;;;;;;;;;;;11.70;99.90;;;;;;5096119;28;20433;-59
2023/03/19 09:25:05;;;;;;;;;;;11.80;99.90;;;;;;5088602;28;20394;-60
2023/03/19 09:27:31;;;;;;;;;;;11.90;99.90;;;;;;5090770;28;20290;-60
2023/03/19 09:29:56;;;;;;;;;;;11.90;99.90;;;;;;5096358;28;19994;-60
2023/03/19 09:32:22;;;;;;;;;;;11.90;99.90;;;;;;5080379;28;20022;-60
2023/03/19 09:34:47;;;;;;;;;;;12.00;99.90;;;;;;5089192;28;19920;-60
2023/03/19 09:37:13;;;;;;;;;;;12.10;99.90;;;;;;5088227;28;20543;-60
2023/03/19 09:39:38;;;;;;;;;;;12.20;99.90;;;;;;5073855;28;19927;-60
2023/03/19 09:42:24;;;;;;;;;;;12.20;99.90;;;;;;5073977;28;20425;-59
2023/03/19 09:44:51;;;;;;;;;;;12.30;99.90;;;;;;5072322;28;19912;-59
2023/03/19 09:47:27;;;;;;;;;;;12.40;99.90;;;;;;5084112;28;19912;-59
2023/03/19 09:50:03;;;;;;;;;;;12.50;99.90;;;;;;5077204;28;19916;-60
2023/03/19 09:52:43;;;;;;;;;;;12.40;99.90;;;;;;5074325;28;20311;-60
2023/03/19 09:55:12;;;;;;;;;;;12.50;99.90;;;;;;5087336;28;19912;-60
2023/03/19 09:57:37;;;;;;;;;;;12.50;99.90;;;;;;5072348;28;19968;-59
2023/03/19 10:00:32;;;;;;;;;;;12.60;99.90;;;;;;5094074;28;20404;-60
2023/03/19 10:03:13;;;;;;;;;;;12.60;99.90;;;;;;5076938;28;19924;-60
2023/03/19 10:05:47;;;;;;;;;;;12.70;99.90;;;;;;5098040;28;19912;-60
2023/03/19 10:08:20;;;;;;;;;;;12.60;99.90;;;;;;5094938;28;20355;-60
2023/03/19 10:11:08;;;;;;;;;;;12.60;99.90;;;;;;5091761;28;19912;-60
2023/03/19 10:13:52;;;;;;;;;;;12.70;99.90;;;;;;5094912;28;19915;-60
2023/03/19 10:16:20;;;;;;;;;;;12.80;99.90;;;;;;5075963;28;19912;-60
2023/03/19 10:18:48;;;;;;;;;;;12.90;99.90;;;;;;5091223;28;19924;-60
2023/03/19 10:21:17;;;;;;;;;;;12.90;99.90;;;;;;5095491;28;19961;-60
2023/03/19 10:23:49;;;;;;;;;;;12.90;99.90;;;;;;5095700;28;20287;-60
2023/03/19 10:26:16;;;;;;;;;;;12.90;99.90;;;;;;5095865;28;19970;-60
2023/03/19 10:28:43;;;;;;;;;;;12.90;99.90;;;;;;5091795;28;20437;-61
2023/03/19 10:31:16;;;;;;;;;;;12.90;99.90;;;;;;5084334;28;19942;-60
2023/03/19 10:33:56;;;;;;;;;;;13.00;99.90;;;;;;5094694;28;20307;-61
2023/03/19 10:36:23;;;;;;;;;;;13.10;99.90;;;;;;5096191;28;19951;-61
2023/03/19 10:38:49;;;;;;;;;;;13.10;99.90;;;;;;5095130;28;20019;-61
2023/03/19 10:41:27;;;;;;;;;;;13.10;99.90;;;;;;5095709;28;19908;-60
2023/03/19 10:44:15;;;;;;;;;;;13.10;99.90;;;;;;5080797;28;19920;-60
2023/03/19 10:46:41;;;;;;;;;;;13.00;99.90;;;;;;5066041;28;19909;-60
2023/03/19 10:49:13;;;;;;;;;;;13.10;99.90;;;;;;5075849;28;20314;-60
2023/03/19 10:51:41;;;;;;;;;;;13.10;99.90;;;;;;5075124;28;19908;-60
2023/03/19 10:54:23;;;;;;;;;;;13.20;99.90;;;;;;5074811;28;19913;-60
2023/03/19 10:56:49;;;;;;;;;;;13.20;99.90;;;;;;5074228;28;19913;-61
2023/03/19 10:59:25;;;;;;;;;;;13.20;99.90;;;;;;5073673;28;19920;-60
2023/03/19 11:01:55;;;;;;;;;;;13.20;99.90;;;;;;5078854;28;19920;-60
2023/03/19 11:04:21;;;;;;;;;;;13.20;99.90;;;;;;5084372;28;19919;-60
2023/03/19 11:06:48;;;;;;;;;;;13.30;99.90;;;;;;5075851;28;19943;-61
2023/03/19 11:09:18;;;;;;;;;;;13.50;99.90;;;;;;5072641;28;19909;-61
2023/03/19 11:11:44;;;;;;;;;;;13.60;99.90;;;;;;5074358;28;20382;-60
2023/03/19 11:14:14;;;;;;;;;;;13.70;99.90;;;;;;5073583;28;19909;-61
2023/03/19 11:16:50;;;;;;;;;;;13.70;99.90;;;;;;5069178;28;19908;-61
2023/03/19 11:19:26;;;;;;;;;;;13.70;99.90;;;;;;5074223;28;19981;-60
2023/03/19 11:21:57;;;;;;;;;;;13.70;99.90;;;;;;5074245;28;20430;-61
2023/03/19 11:24:25;;;;;;;;;;;13.80;99.90;;;;;;5074366;28;19935;-61
2023/03/19 11:26:54;;;;;;;;;;;13.90;99.90;;;;;;5074738;28;19915;-60
2023/03/19 11:29:20;;;;;;;;;;;14.00;99.90;;;;;;5082519;28;19912;-61
2023/03/19 11:31:53;;;;;;;;;;;14.10;99.90;;;;;;5087103;28;19919;-61
2023/03/19 11:34:18;;;;;;;;;;;14.00;99.90;;;;;;5089258;28;19919;-61
2023/03/19 11:36:59;;;;;;;;;;;13.90;99.90;;;;;;5093641;28;19912;-61
2023/03/19 11:39:32;;;;;;;;;;;13.90;99.90;;;;;;5103560;28;19916;-61
2023/03/19 11:42:09;;;;;;;;;;;14.00;99.90;;;;;;5098434;28;19915;-62
2023/03/19 11:44:39;;;;;;;;;;;14.20;99.90;;;;;;5094330;28;19920;-63
2023/03/19 11:47:10;;;;;;;;;;;14.50;99.90;;;;;;5102091;28;19998;-61
2023/03/19 11:49:41;;;;;;;;;;;14.40;99.90;;;;;;5100377;28;19919;-61
2023/03/19 11:52:27;;;;;;;;;;;14.30;99.90;;;;;;5101878;28;19908;-60
2023/03/19 11:55:03;;;;;;;;;;;14.20;99.90;;;;;;5101904;28;19918;-61
2023/03/19 11:57:47;;;;;;;;;;;14.40;99.90;;;;;;5096876;28;20249;-61
2023/03/19 12:00:30;;;;;;;;;;;14.40;99.90;;;;;;5099639;28;19920;-61
2023/03/19 12:03:10;;;;;;;;;;;14.40;99.90;;;;;;5083995;28;20452;-62
2023/03/19 12:05:50;;;;;;;;;;;14.30;99.90;;;;;;5073234;28;20011;-61
2023/03/19 12:08:15;;;;;;;;;;;14.40;99.90;;;;;;5073471;28;19912;-62
2023/03/19 12:10:43;;;;;;;;;;;14.40;99.90;;;;;;5076665;28;19913;-61
2023/03/19 12:13:15;;;;;;;;;;;14.40;99.90;;;;;;5079143;28;19919;-61
2023/03/19 12:15:58;;;;;;;;;;;14.40;99.90;;;;;;5081736;28;20330;-60
2023/03/19 12:18:37;;;;;;;;;;;14.20;99.90;;;;;;5090019;28;20003;-61
2023/03/19 12:21:08;;;;;;;;;;;14.30;99.90;;;;;;5080995;28;19947;-61
2023/03/19 12:23:43;;;;;;;;;;;14.40;99.90;;;;;;5080439;28;19912;-62
2023/03/19 12:26:18;;;;;;;;;;;14.60;99.90;;;;;;5076963;28;19952;-62
2023/03/19 12:28:53;;;;;;;;;;;14.70;99.90;;;;;;5078183;28;19912;-60
2023/03/19 12:31:29;;;;;;;;;;;14.90;99.90;;;;;;5085351;28;19913;-61
2023/03/19 12:33:54;;;;;;;;;;;15.10;99.90;;;;;;5077843;28;19913;-61
2023/03/19 12:36:25;;;;;;;;;;;15.00;99.90;;;;;;5087654;28;20260;-61
2023/03/19 12:38:53;;;;;;;;;;;14.90;99.90;;;;;;5083975;28;19927;-62
2023/03/19 12:41:23;;;;;;;;;;;14.90;99.90;;;;;;5078703;28;20365;-62
2023/03/19 12:43:56;;;;;;;;;;;14.80;99.90;;;;;;5075152;28;20007;-61
2023/03/19 12:46:27;;;;;;;;;;;14.90;99.90;;;;;;5082299;28;19960;-61
2023/03/19 12:48:56;;;;;;;;;;;15.00;99.90;;;;;;5087606;28;19908;-63
2023/03/19 12:51:27;;;;;;;;;;;15.10;99.90;;;;;;5072901;28;19916;-62
2023/03/19 12:53:56;;;;;;;;;;;15.20;99.90;;;;;;5091849;28;19915;-61
2023/03/19 12:56:24;;;;;;;;;;;15.50;99.90;;;;;;5089508;28;19934;-61
2023/03/19 12:58:58;;;;;;;;;;;15.70;99.90;;;;;;5083511;28;20047;-60
2023/03/19 13:01:36;;;;;;;;;;;15.70;99.90;;;;;;5091588;28;19963;-61
2023/03/19 13:04:04;;;;;;;;;;;15.70;99.90;;;;;;5082851;28;19908;-61
2023/03/19 13:06:34;;;;;;;;;;;15.40;99.90;;;;;;5091720;28;20388;-61
2023/03/19 13:09:03;;;;;;;;;;;15.50;99.90;;;;;;5073253;28;19909;-62
2023/03/19 13:11:42;;;;;;;;;;;15.30;99.90;;;;;;5090841;28;19908;-62
2023/03/19 13:14:07;;;;;;;;;;;15.40;99.90;;;;;;5091037;28;20447;-62
2023/03/19 13:16:38;;;;;;;;;;;15.50;99.90;;;;;;5082538;28;19961;-61
2023/03/19 13:19:04;;;;;;;;;;;15.40;99.90;;;;;;5086808;28;20002;-61
2023/03/19 13:21:31;;;;;;;;;;;15.30;99.90;;;;;;5071540;28;19987;-62
2023/03/19 13:24:05;;;;;;;;;;;15.60;99.90;;;;;;5072358;28;19912;-61
2023/03/19 13:26:32;;;;;;;;;;;15.70;99.90;;;;;;5068776;28;20271;-61
2023/03/19 13:28:58;;;;;;;;;;;15.70;99.90;;;;;;5071434;28;19913;-61
2023/03/19 13:31:24;;;;;;;;;;;15.80;99.90;;;;;;5088488;28;19919;-61
2023/03/19 13:34:01;;;;;;;;;;;16.00;99.90;;;;;;5097387;28;19915;-60
2023/03/19 13:36:29;;;;;;;;;;;15.80;99.90;;;;;;5094526;28;19977;-61
2023/03/19 13:38:56;;;;;;;;;;;15.70;99.90;;;;;;5088775;28;20371;-61
2023/03/19 13:41:33;;;;;;;;;;;15.70;99.90;;;;;;5084377;28;19920;-62
2023/03/19 13:44:00;;;;;;;;;;;15.70;99.90;;;;;;5098113;28;19912;-61
2023/03/19 13:46:29;;;;;;;;;;;15.90;99.90;;;;;;5104416;28;19912;-61
2023/03/19 13:49:01;;;;;;;;;;;16.10;99.90;;;;;;5100456;28;20447;-62
2023/03/19 13:51:28;;;;;;;;;;;16.00;99.90;;;;;;5107054;28;19914;-60
2023/03/19 13:54:03;;;;;;;;;;;15.90;99.90;;;;;;5105825;28;20012;-61
2023/03/19 13:56:31;;;;;;;;;;;15.70;99.90;;;;;;5101273;28;20315;-60
2023/03/19 13:59:15;;;;;;;;;;;15.50;99.90;;;;;;5104986;28;19919;-61
2023/03/19 14:01:43;;;;;;;;;;;15.90;99.90;;;;;;5105173;28;19920;-61
2023/03/19 14:04:12;;;;;;;;;;;16.30;99.90;;;;;;5115444;28;19908;-61
2023/03/19 14:06:38;;;;;;;;;;;16.50;99.90;;;;;;5116631;28;20057;-61
2023/03/19 14:09:05;;;;;;;;;;;16.60;99.90;;;;;;5116578;28;19957;-61
2023/03/19 14:11:35;;;;;;;;;;;16.40;99.90;;;;;;5117000;28;20282;-61
2023/03/19 14:14:03;;;;;;;;;;;16.40;99.90;;;;;;5101645;28;20387;-61
2023/03/19 14:16:32;;;;;;;;;;;16.70;99.90;;;;;;5096020;28;19908;-61
2023/03/19 14:18:59;;;;;;;;;;;16.90;99.90;;;;;;5096468;28;19923;-62
2023/03/19 14:21:44;;;;;;;;;;;17.30;99.90;;;;;;5085130;28;19962;-60